Time;durP1;ratioP1;P1;durP2;ratioP2;P2;SDS_P1;SDS_P2;PMS_P1;PMS_P2;Temp;Humidity;BMP_temperature;BMP_pressure;BME280_temperature;BME280_humidity;BME280_pressure;Samples;Min_cycle;Max_cycle;Signal;HPM_P1;HPM_P2
2023/07/23 00:01:25;;;;;;;8.00;3.83;;;;;;;13.07;100.00;93879.66;4948987;29;20162;-67
2023/07/23 00:03:53;;;;;;;6.78;4.15;;;;;;;13.07;100.00;93878.91;4935520;29;20122;-63
2023/07/23 00:06:19;;;;;;;13.97;7.77;;;;;;;13.04;100.00;93885.25;4926521;29;20055;-65
2023/07/23 00:08:46;;;;;;;7.78;4.80;;;;;;;13.05;100.00;93878.56;4930203;29;20061;-63
2023/07/23 00:11:13;;;;;;;7.32;4.60;;;;;;;12.99;100.00;93873.56;4930577;29;20050;-63
2023/07/23 00:13:40;;;;;;;6.78;4.07;;;;;;;12.94;100.00;93878.84;4930570;29;20062;-66
2023/07/23 00:16:06;;;;;;;7.47;4.28;;;;;;;12.84;100.00;93875.13;4930246;29;20043;-63
2023/07/23 00:18:33;;;;;;;6.87;4.00;;;;;;;12.84;100.00;93877.09;4920772;29;20146;-63
2023/07/23 00:21:00;;;;;;;5.97;3.88;;;;;;;12.82;100.00;93877.53;4911925;29;20056;-63
2023/07/23 00:23:26;;;;;;;9.77;4.22;;;;;;;12.84;100.00;93874.34;4926300;29;20040;-63
2023/07/23 00:25:54;;;;;;;19.90;12.77;;;;;;;12.83;100.00;93873.56;4930531;29;20060;-61
2023/07/23 00:28:21;;;;;;;7.47;5.20;;;;;;;12.82;100.00;93868.50;4930080;29;20046;-61
2023/07/23 00:30:48;;;;;;;7.13;4.37;;;;;;;12.77;100.00;93873.31;4930280;29;20040;-64
2023/07/23 00:33:14;;;;;;;6.80;4.20;;;;;;;12.77;100.00;93867.81;4929585;29;20386;-60
2023/07/23 00:35:41;;;;;;;7.57;4.30;;;;;;;12.68;100.00;93872.38;4930504;29;20044;-61
2023/07/23 00:38:08;;;;;;;7.15;4.35;;;;;;;12.66;100.00;93864.56;4916247;29;20497;-61
2023/07/23 00:40:34;;;;;;;6.85;4.35;;;;;;;12.61;100.00;93862.28;4929123;29;20066;-63
2023/07/23 00:43:01;;;;;;;6.87;4.10;;;;;;;12.66;100.00;93866.53;4932173;29;20089;-62
2023/07/23 00:45:28;;;;;;;7.30;4.22;;;;;;;12.63;100.00;93868.16;4930044;29;20104;-61
2023/07/23 00:47:55;;;;;;;6.38;3.95;;;;;;;12.63;100.00;93861.88;4940947;29;20054;-60
2023/07/23 00:50:22;;;;;;;6.53;3.97;;;;;;;12.62;100.00;93857.59;4941012;29;20428;-60
2023/07/23 00:52:49;;;;;;;6.53;4.10;;;;;;;12.57;100.00;93859.63;4945926;28;20039;-61
2023/07/23 00:55:16;;;;;;;6.63;4.00;;;;;;;12.56;100.00;93860.84;4942761;28;20107;-63
2023/07/23 00:57:44;;;;;;;6.63;4.35;;;;;;;12.39;100.00;93848.25;4940937;29;20092;-61
2023/07/23 01:00:11;;;;;;;8.77;4.65;;;;;;;12.27;100.00;93849.72;4940449;29;20507;-62
2023/07/23 01:02:38;;;;;;;6.97;4.30;;;;;;;12.20;100.00;93847.13;4934378;29;20405;-65
2023/07/23 01:05:06;;;;;;;8.55;4.40;;;;;;;12.21;100.00;93845.91;4937030;29;20468;-61
2023/07/23 01:07:34;;;;;;;8.03;4.47;;;;;;;12.23;100.00;93840.75;4937064;29;20061;-61
2023/07/23 01:10:03;;;;;;;7.18;4.20;;;;;;;12.23;100.00;93842.75;4919650;29;20408;-61
2023/07/23 01:12:31;;;;;;;8.20;4.32;;;;;;;12.24;100.00;93839.56;4937156;29;21865;-61
2023/07/23 01:14:58;;;;;;;6.47;3.95;;;;;;;12.26;100.00;93839.16;4932864;29;20497;-61
2023/07/23 01:17:25;;;;;;;6.88;4.20;;;;;;;12.23;100.00;93838.00;4917463;29;20059;-62
2023/07/23 01:20:05;;;;;;;8.37;4.20;;;;;;;12.18;100.00;93842.06;4922238;29;20048;-62
2023/07/23 01:22:36;;;;;;;7.20;4.95;;;;;;;12.07;100.00;93838.00;4937616;29;20834;-62
2023/07/23 01:25:04;;;;;;;6.90;4.65;;;;;;;12.07;100.00;93838.00;4940058;29;20831;-61
2023/07/23 01:27:32;;;;;;;6.38;4.10;;;;;;;12.11;100.00;93827.69;4936911;29;20213;-64
2023/07/23 01:29:59;;;;;;;7.30;4.45;;;;;;;12.11;100.00;93830.44;4939623;29;20148;-62
2023/07/23 01:32:26;;;;;;;6.20;4.23;;;;;;;11.97;100.00;93837.03;4946888;29;20057;-62
2023/07/23 01:34:55;;;;;;;6.40;4.43;;;;;;;11.96;100.00;93833.50;4945212;28;20044;-62
2023/07/23 01:37:23;;;;;;;7.22;4.30;;;;;;;11.90;100.00;93834.44;4940226;29;20050;-62
2023/07/23 01:39:49;;;;;;;7.07;4.50;;;;;;;11.90;100.00;93842.69;4938103;29;20443;-62
2023/07/23 01:42:17;;;;;;;7.93;4.50;;;;;;;11.77;100.00;93831.53;4935287;29;20122;-62
2023/07/23 01:44:44;;;;;;;8.27;4.60;;;;;;;11.79;100.00;93829.91;4938403;29;20070;-64
2023/07/23 01:47:11;;;;;;;6.15;4.38;;;;;;;11.82;100.00;93827.53;4939196;29;20167;-64
2023/07/23 01:49:38;;;;;;;7.82;4.60;;;;;;;11.84;100.00;93827.88;4940196;29;20050;-61
2023/07/23 01:52:04;;;;;;;7.75;4.53;;;;;;;11.88;100.00;93828.56;4915124;29;20055;-62
2023/07/23 01:54:31;;;;;;;7.88;4.80;;;;;;;11.84;100.00;93814.13;4934668;29;20474;-64
2023/07/23 01:56:58;;;;;;;7.07;4.13;;;;;;;11.86;100.00;93828.22;4936404;29;20052;-62
2023/07/23 01:59:25;;;;;;;7.97;4.60;;;;;;;11.85;100.00;93827.44;4939790;28;20063;-64
2023/07/23 02:01:52;;;;;;;7.18;4.50;;;;;;;11.78;100.00;93822.84;4940172;29;20055;-62
2023/07/23 02:04:18;;;;;;;7.43;4.82;;;;;;;11.72;100.00;93826.53;4939724;28;20051;-62
2023/07/23 02:06:45;;;;;;;9.23;4.82;;;;;;;11.73;100.00;93823.38;4928626;29;20477;-67
2023/07/23 02:09:12;;;;;;;6.93;4.70;;;;;;;11.69;100.00;93821.88;4934996;29;20044;-63
2023/07/23 02:11:39;;;;;;;7.10;4.68;;;;;;;11.72;100.00;93821.03;4943556;29;20039;-62
2023/07/23 02:14:05;;;;;;;6.80;4.45;;;;;;;11.67;100.00;93822.34;4947163;29;20090;-65
2023/07/23 02:16:32;;;;;;;7.43;4.47;;;;;;;11.66;100.00;93820.75;4935330;29;20061;-62
2023/07/23 02:19:00;;;;;;;7.38;4.68;;;;;;;11.66;100.00;93826.25;4922300;29;20056;-62
2023/07/23 02:21:26;;;;;;;8.43;4.60;;;;;;;11.67;100.00;93816.84;4923430;29;20047;-63
2023/07/23 02:23:54;;;;;;;6.90;4.43;;;;;;;11.69;100.00;93821.88;4939496;29;20060;-63
2023/07/23 02:26:20;;;;;;;7.47;4.68;;;;;;;11.68;100.00;93812.88;4932420;29;20056;-62
2023/07/23 02:28:47;;;;;;;8.95;4.32;;;;;;;11.60;100.00;93816.97;4937664;29;20044;-67
2023/07/23 02:31:14;;;;;;;6.97;4.90;;;;;;;11.46;100.00;93818.03;4939087;29;20063;-62
2023/07/23 02:33:41;;;;;;;7.77;4.80;;;;;;;11.17;100.00;93821.34;4939995;28;20063;-62
2023/07/23 02:36:08;;;;;;;7.80;4.70;;;;;;;11.09;100.00;93825.44;4938997;29;20051;-65
2023/07/23 02:38:35;;;;;;;7.63;4.78;;;;;;;11.08;100.00;93823.09;4935719;28;20049;-63
2023/07/23 02:41:02;;;;;;;7.07;4.90;;;;;;;11.16;100.00;93819.78;4935387;29;20461;-62
2023/07/23 02:43:29;;;;;;;7.32;4.50;;;;;;;11.26;100.00;93822.75;4939151;29;20373;-65
2023/07/23 02:45:55;;;;;;;7.37;4.90;;;;;;;11.29;100.00;93822.69;4939744;29;20039;-62
2023/07/23 02:48:22;;;;;;;7.70;4.93;;;;;;;11.31;100.00;93825.03;4938572;29;20065;-63
2023/07/23 02:50:52;;;;;;;8.35;4.82;;;;;;;11.18;100.00;93820.13;4937297;29;20404;-65
2023/07/23 02:53:20;;;;;;;8.27;5.20;;;;;;;11.11;100.00;93823.03;4926228;29;20051;-62
2023/07/23 02:55:46;;;;;;;8.23;5.10;;;;;;;11.17;100.00;93826.84;4926733;29;20046;-62
2023/07/23 02:58:13;;;;;;;7.70;5.00;;;;;;;11.11;100.00;93833.25;4936910;29;20059;-64
2023/07/23 03:00:44;;;;;;;9.10;5.13;;;;;;;11.03;100.00;93831.81;4932746;28;20345;-62
2023/07/23 03:03:10;;;;;;;8.85;5.25;;;;;;;11.05;100.00;93834.94;4938458;29;20047;-65
2023/07/23 03:05:37;;;;;;;12.13;8.10;;;;;;;11.08;100.00;93837.59;4928052;29;20035;-62
2023/07/23 03:08:04;;;;;;;10.05;6.80;;;;;;;11.11;100.00;93841.50;4938729;29;20148;-62
2023/07/23 03:10:31;;;;;;;9.20;5.80;;;;;;;11.15;100.00;93848.47;4933767;28;20043;-62
2023/07/23 03:12:58;;;;;;;7.68;5.15;;;;;;;11.18;100.00;93833.09;4933100;29;20074;-62
2023/07/23 03:15:24;;;;;;;7.30;4.63;;;;;;;11.12;100.00;93835.56;4933685;29;20097;-65
2023/07/23 03:17:51;;;;;;;8.10;5.30;;;;;;;10.96;100.00;93832.72;4943972;29;20051;-64
2023/07/23 03:20:18;;;;;;;8.65;5.30;;;;;;;10.96;100.00;93832.72;4915212;29;20052;-63
2023/07/23 03:22:45;;;;;;;9.03;5.67;;;;;;;10.87;100.00;93833.28;4931427;29;20051;-64
2023/07/23 03:25:11;;;;;;;8.43;5.30;;;;;;;10.92;100.00;93832.78;4938240;29;20408;-62
2023/07/23 03:27:38;;;;;;;8.10;4.97;;;;;;;10.99;100.00;93837.38;4939274;29;20055;-63
2023/07/23 03:30:06;;;;;;;8.45;4.88;;;;;;;11.00;100.00;93833.44;4938752;29;20055;-62
2023/07/23 03:32:33;;;;;;;7.85;5.22;;;;;;;11.01;100.00;93829.50;4942655;29;20360;-65
2023/07/23 03:34:59;;;;;;;8.30;5.00;;;;;;;10.90;100.00;93832.41;4937984;29;20047;-62
2023/07/23 03:37:26;;;;;;;7.40;4.90;;;;;;;10.86;100.00;93828.19;4932531;29;20074;-64
2023/07/23 03:39:53;;;;;;;7.90;5.15;;;;;;;10.85;100.00;93824.69;4935603;29;20059;-62
2023/07/23 03:42:20;;;;;;;7.95;5.22;;;;;;;10.78;100.00;93827.53;4938707;29;20059;-62
2023/07/23 03:44:47;;;;;;;7.95;5.00;;;;;;;10.56;100.00;93830.66;4939039;29;20401;-62
2023/07/23 03:47:16;;;;;;;8.07;5.10;;;;;;;10.70;100.00;93820.63;4920094;29;20052;-63
2023/07/23 03:49:44;;;;;;;8.80;5.30;;;;;;;10.65;100.00;93827.38;4935889;29;20039;-66
2023/07/23 03:52:11;;;;;;;7.50;5.30;;;;;;;10.75;100.00;93820.16;4930750;29;20317;-62
2023/07/23 03:54:38;;;;;;;7.75;5.10;;;;;;;10.83;100.00;93815.31;4937575;29;20040;-64
2023/07/23 03:57:06;;;;;;;6.95;4.72;;;;;;;10.92;100.00;93815.53;4938197;29;20048;-62
2023/07/23 03:59:38;;;;;;;8.20;5.10;;;;;;;10.91;100.00;93819.50;4934324;29;20810;-62
2023/07/23 04:02:05;;;;;;;8.50;5.70;;;;;;;10.69;100.00;93821.84;4930366;29;20502;-62
2023/07/23 04:04:33;;;;;;;7.32;4.75;;;;;;;10.78;100.00;93820.09;4934493;29;20663;-62
2023/07/23 04:07:01;;;;;;;7.00;4.63;;;;;;;10.77;100.00;93826.00;4929484;29;20481;-63
2023/07/23 04:09:27;;;;;;;7.80;5.55;;;;;;;10.78;100.00;93825.59;4938274;29;20118;-65
2023/07/23 04:11:55;;;;;;;7.93;4.90;;;;;;;10.71;100.00;93819.44;4940531;28;20382;-62
2023/07/23 04:14:22;;;;;;;7.93;5.40;;;;;;;10.69;100.00;93827.31;4941586;29;20032;-62
2023/07/23 04:16:49;;;;;;;8.27;5.28;;;;;;;10.79;100.00;93831.84;4939700;29;20429;-65
2023/07/23 04:19:16;;;;;;;8.75;5.13;;;;;;;10.98;100.00;93835.81;4910774;29;20048;-65
2023/07/23 04:21:43;;;;;;;7.55;4.82;;;;;;;11.02;100.00;93836.53;4927238;29;20507;-64
2023/07/23 04:24:10;;;;;;;7.90;5.17;;;;;;;11.10;100.00;93832.47;4936630;28;20136;-62
2023/07/23 04:26:39;;;;;;;8.10;4.93;;;;;;;11.05;100.00;93829.44;4949155;28;20094;-62
2023/07/23 04:29:05;;;;;;;9.82;5.15;;;;;;;10.93;100.00;93839.06;4944715;29;20051;-62
2023/07/23 04:31:32;;;;;;;8.38;5.25;;;;;;;10.90;100.00;93829.69;4934082;29;20046;-62
2023/07/23 04:34:00;;;;;;;7.47;4.63;;;;;;;10.90;100.00;93837.16;4933681;29;20386;-63
2023/07/23 04:36:28;;;;;;;6.70;4.67;;;;;;;10.89;100.00;93830.13;4933457;29;20531;-63
2023/07/23 04:38:55;;;;;;;6.90;4.90;;;;;;;10.95;100.00;93828.44;4933391;29;20055;-63
2023/07/23 04:41:21;;;;;;;7.80;5.07;;;;;;;10.86;100.00;93830.94;4933219;29;20098;-64
2023/07/23 04:43:48;;;;;;;7.88;5.38;;;;;;;10.76;100.00;93827.19;4933360;29;20067;-62
2023/07/23 04:46:15;;;;;;;8.35;5.40;;;;;;;10.69;100.00;93832.81;4932503;29;20169;-62
2023/07/23 04:48:42;;;;;;;8.27;5.20;;;;;;;10.67;100.00;93833.22;4933727;29;20048;-62
2023/07/23 04:51:09;;;;;;;8.70;5.00;;;;;;;11.02;100.00;93830.28;4931901;29;20036;-63
2023/07/23 04:53:36;;;;;;;7.68;5.25;;;;;;;11.21;100.00;93832.28;4933145;29;20043;-65
2023/07/23 04:56:05;;;;;;;8.63;4.97;;;;;;;11.45;100.00;93818.44;4933324;29;20050;-63
2023/07/23 04:58:32;;;;;;;7.85;5.38;;;;;;;11.28;100.00;93823.09;4944627;28;20400;-64
2023/07/23 05:01:06;;;;;;;7.47;4.63;;;;;;;11.35;100.00;93820.22;4945734;28;20048;-64
2023/07/23 05:03:33;;;;;;;7.00;4.88;;;;;;;11.33;100.00;93825.38;4936227;29;20620;-63
2023/07/23 05:06:02;;;;;;;7.78;5.18;;;;;;;11.44;100.00;93823.19;4937320;29;20043;-64
2023/07/23 05:08:29;;;;;;;7.85;5.10;;;;;;;11.67;100.00;93819.59;4940738;29;20078;-62
2023/07/23 05:11:01;;;;;;;7.03;4.88;;;;;;;11.56;100.00;93819.78;4940016;28;20065;-68
2023/07/23 05:13:28;;;;;;;8.67;4.80;;;;;;;11.73;100.00;93814.34;4936272;29;20049;-63
2023/07/23 05:15:57;;;;;;;8.65;4.65;;;;;;;11.73;100.00;93817.88;4951369;28;20480;-63
2023/07/23 05:18:24;;;;;;;7.97;5.10;;;;;;;11.85;100.00;93815.66;4929613;29;20657;-63
2023/07/23 05:20:50;;;;;;;9.90;5.38;;;;;;;12.09;100.00;93822.63;4933079;29;20122;-65
2023/07/23 05:23:18;;;;;;;9.18;5.35;;;;;;;12.05;100.00;93819.16;4932560;29;20044;-65
2023/07/23 05:25:45;;;;;;;9.13;5.40;;;;;;;12.25;100.00;93816.34;4929973;29;20046;-66
2023/07/23 05:28:12;;;;;;;7.82;4.50;;;;;;;12.42;100.00;93819.91;4932722;29;20412;-64
2023/07/23 05:30:39;;;;;;;7.75;5.10;;;;;;;12.58;100.00;93821.88;4933177;29;20054;-63
2023/07/23 05:33:07;;;;;;;8.65;5.47;;;;;;;12.68;100.00;93820.84;4915309;29;20420;-63
2023/07/23 05:35:35;;;;;;;7.65;5.20;;;;;;;12.82;100.00;93821.66;4933197;29;20039;-63
2023/07/23 05:38:03;;;;;;;7.20;5.17;;;;;;;12.76;100.00;93813.19;4947557;28;20043;-63
2023/07/23 05:40:31;;;;;;;7.80;5.22;;;;;;;12.98;100.00;93821.66;4932452;29;20223;-64
2023/07/23 05:42:59;;;;;;;7.95;5.30;;;;;;;13.80;100.00;93810.38;4932675;29;20047;-68
2023/07/23 05:45:26;;;;;;;7.90;5.32;;;;;;;16.66;100.00;93814.75;4932783;28;20404;-67
2023/07/23 05:47:53;;;;;;;9.32;5.05;;;;;;;19.40;100.00;93799.22;4932557;29;20098;-65
2023/07/23 05:50:20;;;;;;;7.40;5.30;;;;;;;21.19;82.70;93807.47;4932044;28;20163;-62
2023/07/23 05:52:46;;;;;;;7.28;4.90;;;;;;;22.72;76.68;93800.19;4932632;29;20043;-64
2023/07/23 05:55:13;;;;;;;6.00;4.75;;;;;;;24.06;64.66;93803.38;4931853;29;20051;-62
2023/07/23 05:57:40;;;;;;;10.38;9.07;;;;;;;25.00;61.18;93794.72;4932608;29;20043;-63
2023/07/23 06:00:07;;;;;;;5.75;4.40;;;;;;;26.13;53.51;93795.09;4931174;29;20122;-67
2023/07/23 06:02:34;;;;;;;6.47;4.67;;;;;;;27.87;49.22;93789.91;4915455;29;20093;-63
2023/07/23 06:05:01;;;;;;;4.85;3.80;;;;;;;25.81;51.10;93792.69;4937645;28;20332;-65
2023/07/23 06:07:30;;;;;;;5.55;3.80;;;;;;;25.28;54.23;93789.84;4945715;28;21655;-64
2023/07/23 06:09:57;;;;;;;5.28;4.00;;;;;;;27.07;50.58;93802.56;4946743;28;20048;-64
2023/07/23 06:12:24;;;;;;;4.93;3.50;;;;;;;26.22;50.28;93799.63;4931907;29;20118;-63
2023/07/23 06:14:50;;;;;;;4.83;3.70;;;;;;;24.78;54.64;93793.47;4932049;29;20489;-63
2023/07/23 06:17:17;;;;;;;6.05;3.90;;;;;;;23.99;61.10;93803.88;4934916;28;20413;-63
2023/07/23 06:19:44;;;;;;;6.15;4.00;;;;;;;25.17;54.86;93800.28;4913597;29;20482;-63
2023/07/23 06:22:11;;;;;;;4.97;3.80;;;;;;;24.82;56.34;93804.44;4912347;29;20072;-65
2023/07/23 06:24:38;;;;;;;5.43;3.88;;;;;;;24.37;57.02;93807.22;4912897;29;20039;-64
2023/07/23 06:27:05;;;;;;;6.00;3.40;;;;;;;22.80;66.88;93805.31;4912657;29;20059;-63
2023/07/23 06:29:32;;;;;;;5.10;3.70;;;;;;;21.71;75.29;93822.38;4909128;29;20674;-62
2023/07/23 06:31:59;;;;;;;5.35;3.80;;;;;;;20.03;97.67;93821.41;4926043;29;20060;-64
2023/07/23 06:34:25;;;;;;;8.75;4.15;;;;;;;20.14;96.87;93816.06;4910951;29;20058;-63
2023/07/23 06:36:52;;;;;;;6.60;4.20;;;;;;;18.92;100.00;93819.47;4926657;29;20066;-62
2023/07/23 06:39:20;;;;;;;5.10;3.60;;;;;;;19.27;98.48;93820.94;4923081;29;20486;-62
2023/07/23 06:41:47;;;;;;;5.95;3.78;;;;;;;20.43;93.24;93811.69;4926392;29;20044;-62
2023/07/23 06:44:14;;;;;;;5.47;3.78;;;;;;;20.22;89.79;93813.66;4927408;29;20060;-62
2023/07/23 06:46:41;;;;;;;5.10;3.53;;;;;;;20.77;89.86;93808.69;4910756;29;20357;-62
2023/07/23 06:49:08;;;;;;;5.70;3.60;;;;;;;21.08;88.40;93808.09;4927499;29;20052;-62
2023/07/23 06:51:35;;;;;;;5.97;4.00;;;;;;;21.71;85.87;93816.00;4924071;29;20039;-64
2023/07/23 06:54:02;;;;;;;6.20;3.58;;;;;;;22.31;82.28;93808.75;4923396;29;20061;-68
2023/07/23 06:56:29;;;;;;;5.97;3.45;;;;;;;22.32;80.77;93813.09;4922852;29;20040;-63
2023/07/23 06:58:55;;;;;;;5.15;3.47;;;;;;;22.95;79.82;93814.31;4924732;29;20044;-63
2023/07/23 07:01:23;;;;;;;6.10;3.42;;;;;;;22.36;76.27;93821.25;4892586;29;20394;-63
2023/07/23 07:03:50;;;;;;;6.23;3.37;;;;;;;22.78;75.61;93814.22;4900004;29;20045;-63
2023/07/23 07:06:16;;;;;;;4.72;3.10;;;;;;;24.73;68.89;93805.50;4910075;29;20408;-65
2023/07/23 07:08:44;;;;;;;6.05;3.83;;;;;;;26.43;59.12;93806.38;4912200;29;20052;-66
2023/07/23 07:11:10;;;;;;;4.93;3.20;;;;;;;26.94;57.63;93808.06;4926100;29;20052;-62
2023/07/23 07:13:39;;;;;;;4.03;2.80;;;;;;;25.73;52.63;93805.00;4912660;29;20493;-62
2023/07/23 07:16:06;;;;;;;5.37;2.90;;;;;;;26.27;51.67;93801.66;4914010;28;20114;-63
2023/07/23 07:18:33;;;;;;;4.53;2.70;;;;;;;27.27;48.92;93798.53;4950290;29;20189;-64
2023/07/23 07:21:00;;;;;;;4.72;2.42;;;;;;;27.79;43.81;93788.97;4950408;29;20050;-65
2023/07/23 07:23:28;;;;;;;4.25;2.50;;;;;;;28.06;41.64;93792.72;4949693;29;20047;-65
2023/07/23 07:25:55;;;;;;;4.68;2.60;;;;;;;27.12;43.68;93795.34;4950125;29;20117;-64
2023/07/23 07:28:26;;;;;;;3.70;2.73;;;;;;;29.87;37.61;93798.16;4932309;29;20054;-64
2023/07/23 07:30:58;;;;;;;3.97;2.92;;;;;;;30.17;35.99;93791.38;4950031;29;20048;-64
2023/07/23 07:33:26;;;;;;;4.15;2.53;;;;;;;28.68;38.98;93789.00;4949452;29;20051;-64
2023/07/23 07:35:57;;;;;;;4.45;2.55;;;;;;;31.91;33.91;93799.66;4950118;29;20050;-65
2023/07/23 07:38:25;;;;;;;4.20;2.40;;;;;;;33.34;31.61;93799.06;4949459;29;20589;-64
2023/07/23 07:40:53;;;;;;;4.17;2.00;;;;;;;32.04;31.88;93797.47;4949921;29;20053;-63
2023/07/23 07:43:19;;;;;;;4.03;2.38;;;;;;;31.23;33.88;93810.75;4949670;29;20114;-64
2023/07/23 07:45:48;;;;;;;4.75;2.10;;;;;;;31.38;32.83;93798.00;4950439;28;20051;-64
2023/07/23 07:48:14;;;;;;;3.20;2.20;;;;;;;30.12;34.53;93795.81;4947278;29;20081;-66
2023/07/23 07:50:41;;;;;;;2.75;2.00;;;;;;;30.64;34.21;93791.31;4941056;29;20044;-64
2023/07/23 07:53:08;;;;;;;3.50;2.13;;;;;;;30.70;34.26;93796.09;4952115;29;20043;-64
2023/07/23 07:55:40;;;;;;;4.47;2.10;;;;;;;32.82;31.84;93784.25;4954082;29;20043;-64
2023/07/23 07:58:12;;;;;;;3.53;2.33;;;;;;;32.56;31.49;93780.44;4953176;29;20074;-64
2023/07/23 08:00:41;;;;;;;3.38;2.13;;;;;;;33.82;28.77;93772.84;4954020;29;20039;-64
2023/07/23 08:03:08;;;;;;;3.63;2.50;;;;;;;33.79;29.08;93777.59;4952697;29;20039;-64
2023/07/23 08:05:37;;;;;;;3.83;1.90;;;;;;;33.26;29.56;93778.41;4954052;29;20145;-65
2023/07/23 08:08:05;;;;;;;3.65;2.30;;;;;;;34.59;28.21;93781.06;4953883;29;20491;-65
2023/07/23 08:10:34;;;;;;;3.15;2.08;;;;;;;34.90;26.97;93770.25;4952610;29;20411;-65
2023/07/23 08:13:02;;;;;;;3.88;2.08;;;;;;;33.67;28.52;93775.75;4953660;29;20061;-63
2023/07/23 08:15:31;;;;;;;3.78;2.10;;;;;;;34.42;28.19;93776.03;4952806;29;20082;-63
2023/07/23 08:17:59;;;;;;;2.80;2.10;;;;;;;33.32;28.52;93769.69;4952183;29;20039;-63
2023/07/23 08:20:27;;;;;;;4.13;2.10;;;;;;;32.66;30.83;93777.81;4949811;29;20125;-63
2023/07/23 08:22:55;;;;;;;2.97;2.20;;;;;;;31.80;31.77;93775.97;4952319;29;20125;-63
2023/07/23 08:25:22;;;;;;;3.90;2.05;;;;;;;31.90;31.77;93764.84;4951073;29;20099;-65
2023/07/23 08:27:51;;;;;;;5.18;2.45;;;;;;;32.88;30.97;93776.31;4952265;29;20058;-63
2023/07/23 08:30:20;;;;;;;6.60;2.10;;;;;;;33.72;29.68;93769.84;4950878;29;20078;-64
2023/07/23 08:32:48;;;;;;;3.17;2.22;;;;;;;32.97;30.84;93772.16;4951908;29;20051;-66
2023/07/23 08:35:15;;;;;;;3.65;2.30;;;;;;;35.16;27.60;93760.38;4951463;29;20416;-64
2023/07/23 08:37:42;;;;;;;4.20;2.22;;;;;;;35.46;27.00;93764.31;4951952;29;20047;-66
2023/07/23 08:40:10;;;;;;;3.55;2.55;;;;;;;37.62;24.80;93756.47;4938753;29;20056;-63
2023/07/23 08:43:06;;;;;;;3.83;2.10;;;;;;;38.71;23.53;93768.06;4949194;29;20050;-64
2023/07/23 08:46:03;;;;;;;3.35;2.20;;;;;;;39.43;22.59;93763.75;4926847;29;20644;-64
2023/07/23 08:49:01;;;;;;;2.90;2.00;;;;;;;37.94;23.73;93766.75;4920979;29;20044;-64
2023/07/23 08:51:34;;;;;;;3.08;2.10;;;;;;;35.98;24.73;93763.59;4913597;29;20413;-67
2023/07/23 08:54:02;;;;;;;4.22;2.00;;;;;;;34.65;26.79;93775.94;4932481;29;20408;-63
2023/07/23 08:56:29;;;;;;;3.47;2.00;;;;;;;34.87;26.51;93782.81;4931536;29;20061;-63
2023/07/23 08:59:00;;;;;;;3.10;1.92;;;;;;;33.70;28.36;93761.09;4932460;29;20077;-63
2023/07/23 09:01:31;;;;;;;2.83;1.73;;;;;;;32.75;29.38;93770.81;4931375;29;20063;-63
2023/07/23 09:03:59;;;;;;;3.13;2.22;;;;;;;31.24;31.67;93764.06;4932425;29;20048;-65
2023/07/23 09:06:29;;;;;;;4.95;1.95;;;;;;;29.99;33.82;93773.22;4931696;29;20048;-63
2023/07/23 09:09:09;;;;;;;3.73;2.00;;;;;;;28.74;36.22;93774.03;4932196;29;20104;-65
2023/07/23 09:11:37;;;;;;;4.40;2.13;;;;;;;27.70;38.20;93773.16;4931385;29;20070;-64
2023/07/23 09:14:15;;;;;;;4.07;2.20;;;;;;;28.20;38.08;93779.44;4931851;29;20047;-63
2023/07/23 09:16:44;;;;;;;4.10;2.10;;;;;;;28.02;38.18;93777.41;4905560;28;1113045;-66
2023/07/23 09:19:14;;;;;;;3.00;2.10;;;;;;;27.96;38.82;93782.34;4951526;28;20055;-63
2023/07/23 09:21:44;;;;;;;3.20;1.90;;;;;;;28.71;37.31;93780.75;4952244;28;20069;-62
2023/07/23 09:24:15;;;;;;;3.60;2.47;;;;;;;28.03;38.74;93774.06;4949482;28;20098;-63
2023/07/23 09:26:43;;;;;;;4.07;2.23;;;;;;;28.02;39.59;93783.03;4933162;29;20054;-66
2023/07/23 09:29:11;;;;;;;3.47;2.17;;;;;;;28.99;37.72;93777.44;4932409;29;20056;-65
2023/07/23 09:31:43;;;;;;;4.68;2.40;;;;;;;28.60;38.53;93787.34;4932878;29;20039;-63
2023/07/23 09:34:10;;;;;;;3.63;2.15;;;;;;;29.55;36.65;93796.22;4926302;28;20047;-63
2023/07/23 09:36:37;;;;;;;3.53;2.10;;;;;;;29.60;35.33;93795.34;4957402;28;20047;-66
2023/07/23 09:39:06;;;;;;;3.33;2.10;;;;;;;30.03;34.41;93782.91;4932631;29;20039;-63
2023/07/23 09:41:37;;;;;;;3.72;1.92;;;;;;;29.25;35.08;93785.22;4930545;29;20750;-63
2023/07/23 09:44:09;;;;;;;3.53;2.10;;;;;;;28.76;36.70;93779.91;4931387;29;20065;-62
2023/07/23 09:46:38;;;;;;;3.55;2.10;;;;;;;29.52;36.53;93796.53;4931287;29;20816;-62
2023/07/23 09:49:04;;;;;;;3.30;2.25;;;;;;;28.17;37.55;93782.56;4918210;29;20501;-63
2023/07/23 09:51:32;;;;;;;3.03;2.00;;;;;;;27.74;38.03;93791.84;4915386;29;20464;-63
2023/07/23 09:54:01;;;;;;;3.13;2.10;;;;;;;26.75;39.14;93791.84;4932481;29;20040;-65
2023/07/23 09:56:28;;;;;;;4.38;2.20;;;;;;;27.77;38.06;93791.56;4930447;29;20052;-66
2023/07/23 09:58:57;;;;;;;3.10;2.10;;;;;;;27.58;38.83;93804.84;4932661;29;20047;-64
2023/07/23 10:01:25;;;;;;;3.78;2.03;;;;;;;27.50;38.92;93813.88;4931632;29;20052;-64
2023/07/23 10:03:54;;;;;;;3.60;2.20;;;;;;;27.09;39.12;93797.91;4932665;29;20048;-63
2023/07/23 10:06:23;;;;;;;3.95;2.30;;;;;;;26.87;40.15;93801.72;4931561;29;20048;-64
2023/07/23 10:08:51;;;;;;;4.20;2.20;;;;;;;26.96;40.07;93805.47;4931641;29;20433;-65
2023/07/23 10:11:19;;;;;;;3.08;1.98;;;;;;;26.83;40.03;93792.78;4930360;29;20118;-66
2023/07/23 10:13:51;;;;;;;3.92;2.22;;;;;;;27.19;39.34;93787.06;4932331;29;20400;-64
2023/07/23 10:16:22;;;;;;;3.70;2.30;;;;;;;26.84;40.07;93796.34;4931597;29;20078;-62
2023/07/23 10:18:51;;;;;;;4.07;2.47;;;;;;;26.39;41.25;93785.44;4932084;29;20047;-64
2023/07/23 10:21:21;;;;;;;4.35;2.78;;;;;;;26.78;40.71;93790.00;4931441;29;20059;-62
2023/07/23 10:23:56;;;;;;;4.82;2.40;;;;;;;27.47;39.06;93778.31;4932104;29;20477;-62
2023/07/23 10:26:30;;;;;;;3.97;2.60;;;;;;;29.96;36.01;93777.16;4931475;29;20056;-62
2023/07/23 10:29:07;;;;;;;3.83;2.57;;;;;;;28.22;37.17;93785.31;4931945;29;20078;-62
2023/07/23 10:31:36;;;;;;;4.10;2.42;;;;;;;27.46;39.10;93773.97;4930648;29;20461;-63
2023/07/23 10:34:23;;;;;;;3.97;2.50;;;;;;;27.16;40.65;93774.03;4931806;29;20444;-63
2023/07/23 10:37:28;;;;;;;5.50;2.58;;;;;;;25.92;41.70;93772.22;4930819;29;20048;-63
2023/07/23 10:39:55;;;;;;;4.40;2.90;;;;;;;26.18;42.47;93773.81;4928151;29;20048;-63
2023/07/23 10:42:34;;;;;;;4.87;2.80;;;;;;;26.77;40.72;93766.75;4912461;29;20050;-63
2023/07/23 10:45:31;;;;;;;5.03;2.97;;;;;;;27.25;40.08;93770.88;4950148;28;20057;-62
2023/07/23 10:48:01;;;;;;;4.00;2.72;;;;;;;27.28;39.30;93766.25;4923006;29;20570;-64
2023/07/23 10:50:31;;;;;;;5.53;2.97;;;;;;;26.75;40.41;93766.50;4912034;29;20051;-63
2023/07/23 10:53:03;;;;;;;4.40;2.72;;;;;;;28.37;38.09;93755.84;4924397;29;20122;-64
2023/07/23 10:55:36;;;;;;;4.67;3.17;;;;;;;29.02;36.03;93742.47;4930897;29;20055;-64
2023/07/23 10:58:11;;;;;;;4.97;3.03;;;;;;;28.39;37.25;93754.03;4924582;29;20102;-64
2023/07/23 11:00:52;;;;;;;5.28;3.25;;;;;;;27.38;37.94;93761.78;4918065;29;20239;-67
2023/07/23 11:03:21;;;;;;;5.50;3.38;;;;;;;27.24;38.28;93748.88;4930825;29;20043;-63
2023/07/23 11:05:50;;;;;;;5.22;3.50;;;;;;;27.01;38.68;93753.97;4919065;29;20114;-63
2023/07/23 11:08:19;;;;;;;5.30;3.77;;;;;;;27.39;38.55;93754.09;4930465;29;20057;-64
2023/07/23 11:10:57;;;;;;;6.57;3.33;;;;;;;27.27;38.78;93750.66;4931234;29;20066;-63
2023/07/23 11:13:38;;;;;;;6.45;4.10;;;;;;;26.93;38.52;93767.13;4930849;29;20055;-63
2023/07/23 11:16:05;;;;;;;6.70;4.40;;;;;;;26.45;38.78;93758.78;4931115;29;20044;-65
2023/07/23 11:18:33;;;;;;;8.05;3.80;;;;;;;26.30;39.76;93752.78;4930142;29;21001;-64
2023/07/23 11:21:04;;;;;;;6.97;4.10;;;;;;;26.03;40.39;93758.06;4931413;29;20054;-65
2023/07/23 11:23:32;;;;;;;5.75;3.60;;;;;;;25.80;40.47;93748.25;4930054;29;20399;-63
2023/07/23 11:25:59;;;;;;;6.47;4.07;;;;;;;26.33;39.78;93750.97;4929934;29;20083;-64
2023/07/23 11:28:26;;;;;;;7.85;4.20;;;;;;;26.24;39.83;93752.03;4930482;29;20133;-62
2023/07/23 11:30:55;;;;;;;6.40;4.13;;;;;;;26.08;40.56;93742.47;4931087;29;20040;-63
2023/07/23 11:33:27;;;;;;;6.70;3.90;;;;;;;27.09;39.73;93738.75;4930133;29;20070;-63
2023/07/23 11:35:54;;;;;;;5.88;3.80;;;;;;;26.91;39.31;93745.09;4930797;29;20047;-66